Time;durP1;ratioP1;P1;durP2;ratioP2;P2;SDS_P1;SDS_P2;PMS_P1;PMS_P2;Temp;Humidity;BMP_temperature;BMP_pressure;BME280_temperature;BME280_humidity;BME280_pressure;Samples;Min_cycle;Max_cycle;Signal;HPM_P1;HPM_P2
2021/08/09 00:00:38;;;;;;;4.68;0.93;;;;;;;12.82;57.48;101065.03;5010255;28;20532;-69
2021/08/09 00:03:13;;;;;;;4.20;1.40;;;;;;;13.27;56.58;101064.63;5009007;28;20408;-69
2021/08/09 00:05:51;;;;;;;4.03;1.33;;;;;;;13.15;56.67;101061.75;5012626;28;20025;-68
2021/08/09 00:08:24;;;;;;;6.85;1.40;;;;;;;13.09;56.83;101076.88;5010127;28;20225;-69
2021/08/09 00:10:51;;;;;;;5.03;1.23;;;;;;;12.84;57.38;101060.56;5015626;28;20029;-68
2021/08/09 00:13:22;;;;;;;4.63;1.67;;;;;;;13.37;56.10;101059.78;5012055;28;20038;-68
2021/08/09 00:15:50;;;;;;;6.47;1.15;;;;;;;13.07;57.01;101062.97;5017768;28;20504;-69
2021/08/09 00:18:18;;;;;;;3.10;1.77;;;;;;;12.60;57.57;101062.50;5008425;28;20657;-69
2021/08/09 00:20:48;;;;;;;9.50;1.38;;;;;;;12.97;57.42;101059.06;5011865;28;20109;-69
2021/08/09 00:23:18;;;;;;;8.13;1.83;;;;;;;13.39;55.90;101063.19;5011620;28;20499;-69
2021/08/09 00:25:46;;;;;;;11.57;2.28;;;;;;;12.87;57.33;101065.66;5012647;28;20028;-68
2021/08/09 00:28:14;;;;;;;10.13;1.17;;;;;;;13.02;56.87;101070.19;5008070;28;20048;-69
2021/08/09 00:30:45;;;;;;;2.70;1.40;;;;;;;13.37;56.10;101067.66;5011958;28;20033;-68
2021/08/09 00:33:13;;;;;;;8.25;1.38;;;;;;;13.26;55.90;101073.44;5012405;28;20026;-68
2021/08/09 00:35:41;;;;;;;2.80;1.42;;;;;;;13.38;56.03;101073.75;4996636;28;20022;-69
2021/08/09 00:38:17;;;;;;;5.03;1.08;;;;;;;13.00;57.08;101081.69;5014243;28;20034;-67
2021/08/09 00:40:50;;;;;;;4.82;0.98;;;;;;;13.52;55.45;101076.56;5009126;28;20030;-69
2021/08/09 00:43:23;;;;;;;6.55;1.08;;;;;;;13.38;56.00;101077.22;5009603;28;20029;-68
2021/08/09 00:46:00;;;;;;;5.07;1.55;;;;;;;13.48;55.26;101086.34;5001930;28;20026;-68
2021/08/09 00:48:34;;;;;;;4.65;0.90;;;;;;;13.65;55.11;101082.06;5019375;28;20033;-69
2021/08/09 00:51:05;;;;;;;10.70;2.15;;;;;;;13.02;56.68;101075.44;5003906;28;20499;-68
2021/08/09 00:53:38;;;;;;;6.75;1.42;;;;;;;12.59;57.71;101082.63;5014236;28;20037;-69
2021/08/09 00:56:04;;;;;;;5.90;1.23;;;;;;;13.15;56.33;101069.63;5010076;28;20041;-69
2021/08/09 00:58:35;;;;;;;6.65;1.25;;;;;;;13.02;56.58;101067.56;5019366;28;20125;-68
2021/08/09 01:01:02;;;;;;;6.35;1.48;;;;;;;12.62;57.46;101072.00;5008998;28;20049;-70
2021/08/09 01:03:28;;;;;;;5.32;1.52;;;;;;;13.15;56.02;101080.13;5009651;28;20029;-69
2021/08/09 01:05:54;;;;;;;3.85;0.90;;;;;;;13.18;55.63;101082.59;5011078;28;20033;-70
2021/08/09 01:08:32;;;;;;;10.35;1.80;;;;;;;12.77;56.56;101078.34;5011904;28;20487;-70
2021/08/09 01:11:19;;;;;;;4.97;1.05;;;;;;;12.80;56.52;101069.50;4993077;28;20131;-69
2021/08/09 01:14:24;;;;;;;8.90;1.73;;;;;;;12.50;57.17;101083.06;5018323;28;20032;-68
2021/08/09 01:16:55;;;;;;;4.90;1.52;;;;;;;13.17;55.68;101083.53;4997903;28;20282;-69
2021/08/09 01:19:40;;;;;;;;;;;;;;;12.96;55.99;101069.63;5019528;28;20049;-69
2021/08/09 01:22:42;;;;;;;5.40;1.23;;;;;;;13.06;55.83;101081.41;5008937;28;19936;-68
2021/08/09 01:25:34;;;;;;;15.57;1.63;;;;;;;12.82;56.38;101076.38;5009481;28;20883;-69
2021/08/09 01:28:01;;;;;;;3.78;1.00;;;;;;;12.70;56.43;101069.91;5013941;28;20480;-69
2021/08/09 01:30:30;;;;;;;9.48;1.20;;;;;;;12.85;56.28;101078.03;5001828;28;20044;-68
2021/08/09 01:32:56;;;;;;;2.75;1.02;;;;;;;13.06;55.73;101077.00;5011558;28;20117;-69
2021/08/09 01:35:24;;;;;;;5.00;1.13;;;;;;;13.06;55.87;101076.16;5009159;28;20124;-69
2021/08/09 01:37:58;;;;;;;2.38;1.13;;;;;;;12.69;56.39;101075.22;4999752;28;20398;-70
2021/08/09 01:40:27;;;;;;;3.65;0.95;;;;;;;12.77;56.25;101083.59;5010528;28;20561;-70
2021/08/09 01:42:56;;;;;;;8.02;2.03;;;;;;;12.18;57.82;101085.34;5010332;28;20440;-69
2021/08/09 01:45:26;;;;;;;9.35;1.83;;;;;;;12.83;55.81;101079.88;5017733;28;20100;-68
2021/08/09 01:47:54;;;;;;;6.13;1.27;;;;;;;12.86;55.33;101090.19;5013089;28;20750;-69
2021/08/09 01:50:27;;;;;;;5.30;1.33;;;;;;;12.34;56.80;101093.38;5010671;28;20040;-69
2021/08/09 01:52:54;;;;;;;6.03;0.95;;;;;;;12.79;55.59;101086.16;5017132;28;20115;-69
2021/08/09 01:55:21;;;;;;;6.53;1.60;;;;;;;12.42;56.52;101100.88;5008209;28;20048;-69
2021/08/09 01:57:51;;;;;;;7.15;1.40;;;;;;;12.08;57.96;101094.50;5007235;28;20030;-69
2021/08/09 02:00:20;;;;;;;7.82;1.60;;;;;;;12.01;58.23;101096.53;5008806;28;20044;-70
2021/08/09 02:02:53;;;;;;;5.15;1.55;;;;;;;11.86;58.39;101100.63;5004652;28;20033;-70
2021/08/09 02:05:19;;;;;;;5.35;1.63;;;;;;;11.93;58.13;101100.38;5008104;28;20421;-69
2021/08/09 02:08:03;;;;;;;9.13;1.67;;;;;;;12.45;56.43;101101.63;5009454;28;20041;-70
2021/08/09 02:10:30;;;;;;;8.48;2.17;;;;;;;12.64;55.86;101106.03;4994696;28;20076;-70
2021/08/09 02:13:23;;;;;;;10.63;2.13;;;;;;;12.13;57.42;101110.84;5008935;28;20034;-69
2021/08/09 02:15:58;;;;;;;7.40;1.75;;;;;;;12.68;55.39;101118.94;4972299;28;20044;-70
2021/08/09 02:18:45;;;;;;;9.65;2.15;;;;;;;12.05;57.42;101105.13;5009914;28;20314;-70
2021/08/09 02:21:15;;;;;;;5.20;1.38;;;;;;;12.44;56.31;101112.16;5008857;28;20371;-70
2021/08/09 02:23:48;;;;;;;6.30;1.63;;;;;;;12.27;56.65;101113.75;4996712;28;20116;-71
2021/08/09 02:26:29;;;;;;;7.20;1.52;;;;;;;12.06;57.36;101125.16;4992805;28;20507;-69
2021/08/09 02:29:04;;;;;;;6.70;1.48;;;;;;;11.94;57.78;101120.44;5010204;28;20160;-71
2021/08/09 02:31:32;;;;;;;7.20;1.20;;;;;;;12.32;56.48;101121.41;5010294;28;20029;-69
2021/08/09 02:34:01;;;;;;;9.57;1.67;;;;;;;12.45;56.29;101127.00;5010599;28;20175;-70
2021/08/09 02:36:27;;;;;;;6.25;2.00;;;;;;;12.29;56.75;101126.81;5007651;28;20018;-70
2021/08/09 02:38:54;;;;;;;5.45;1.90;;;;;;;12.35;56.24;101121.28;5017270;28;20045;-70
2021/08/09 02:41:20;;;;;;;8.32;2.05;;;;;;;12.62;55.79;101123.59;5011721;28;20056;-70
2021/08/09 02:43:46;;;;;;;4.43;1.65;;;;;;;12.16;57.13;101142.19;4997635;28;20075;-69
2021/08/09 02:46:12;;;;;;;5.53;2.15;;;;;;;12.23;56.78;101141.00;5017168;23;20514;-68
2021/08/09 02:48:41;;;;;;;6.30;2.30;;;;;;;12.53;55.97;101135.34;5011657;28;20064;-70
2021/08/09 02:51:07;;;;;;;9.10;2.75;;;;;;;12.12;56.75;101132.75;5006347;28;20099;-69
2021/08/09 02:53:33;;;;;;;5.90;1.88;;;;;;;12.01;57.34;101129.75;5028391;28;20419;-68
2021/08/09 02:56:01;;;;;;;4.45;2.13;;;;;;;11.99;57.27;101128.94;4999135;28;20121;-68
2021/08/09 02:58:29;;;;;;;7.68;3.30;;;;;;;12.36;56.21;101124.78;4992884;28;20038;-68
2021/08/09 03:00:56;;;;;;;5.30;2.03;;;;;;;12.65;55.53;101129.56;4974572;28;20046;-68
2021/08/09 03:03:23;;;;;;;4.50;1.92;;;;;;;12.61;55.69;101133.25;4992351;28;20038;-69
2021/08/09 03:05:53;;;;;;;7.78;2.45;;;;;;;12.13;57.23;101134.44;5001563;28;20034;-68
2021/08/09 03:08:19;;;;;;;5.35;1.92;;;;;;;12.11;57.17;101135.44;4995310;28;20034;-68
2021/08/09 03:10:46;;;;;;;4.95;1.73;;;;;;;11.79;57.99;101143.72;4990009;28;20084;-69
2021/08/09 03:13:12;;;;;;;8.73;2.67;;;;;;;11.74;58.20;101132.56;4999430;28;20026;-69
2021/08/09 03:15:41;;;;;;;10.13;2.60;;;;;;;12.49;55.98;101137.25;4998932;28;20172;-68
2021/08/09 03:18:07;;;;;;;6.57;2.15;;;;;;;12.37;56.44;101144.81;4997428;28;20061;-69
2021/08/09 03:20:32;;;;;;;7.28;2.50;;;;;;;12.07;57.20;101143.44;4999757;28;20049;-69
2021/08/09 03:22:59;;;;;;;5.13;2.38;;;;;;;12.54;55.61;101138.84;4992503;28;20038;-69
2021/08/09 03:25:25;;;;;;;10.68;2.85;;;;;;;12.54;55.53;101131.81;4995119;28;20026;-69
2021/08/09 03:27:50;;;;;;;8.48;3.22;;;;;;;12.39;55.87;101138.56;4990345;28;20110;-69
2021/08/09 03:30:16;;;;;;;8.93;2.38;;;;;;;11.99;57.36;101131.56;4995880;28;20166;-69
2021/08/09 03:32:42;;;;;;;6.55;2.03;;;;;;;12.15;56.46;101140.47;4982261;28;20029;-69
2021/08/09 03:35:08;;;;;;;4.72;2.10;;;;;;;12.33;55.63;101138.00;4982451;28;20038;-69
2021/08/09 03:37:34;;;;;;;9.55;2.38;;;;;;;12.36;56.07;101148.38;4994469;28;20041;-69
2021/08/09 03:40:00;;;;;;;6.70;2.05;;;;;;;12.19;56.10;101146.44;4978629;28;20042;-69
2021/08/09 03:42:26;;;;;;;6.30;1.80;;;;;;;12.22;56.00;101154.16;4983236;28;20518;-69
2021/08/09 03:44:51;;;;;;;8.70;2.13;;;;;;;11.98;57.13;101158.69;4990699;28;20037;-69
2021/08/09 03:47:17;;;;;;;9.65;2.10;;;;;;;12.34;55.67;101161.53;4979506;28;20035;-69
2021/08/09 03:49:43;;;;;;;7.22;1.92;;;;;;;12.10;56.59;101173.03;4984765;28;20404;-69
2021/08/09 03:52:08;;;;;;;7.93;2.10;;;;;;;11.48;58.15;101165.00;4999384;28;20042;-69
2021/08/09 03:54:34;;;;;;;12.18;3.03;;;;;;;11.72;57.28;101172.81;5002817;28;20125;-69
2021/08/09 03:56:59;;;;;;;8.07;2.15;;;;;;;11.59;57.75;101169.81;5002159;28;20596;-69
2021/08/09 03:59:25;;;;;;;5.97;2.28;;;;;;;11.95;56.72;101171.91;4991622;28;20102;-69
2021/08/09 04:01:50;;;;;;;5.13;1.20;;;;;;;12.07;56.17;101181.88;4994642;28;20076;-69
2021/08/09 04:04:16;;;;;;;5.75;1.90;;;;;;;11.74;57.40;101177.06;4995559;28;20026;-69
2021/08/09 04:06:43;;;;;;;7.47;1.95;;;;;;;11.69;57.36;101181.63;5003906;28;20623;-69
2021/08/09 04:09:08;;;;;;;10.38;2.05;;;;;;;11.93;56.97;101181.59;4995464;28;20133;-69
2021/08/09 04:11:36;;;;;;;12.05;2.40;;;;;;;12.26;55.79;101185.41;4995572;28;20402;-69
2021/08/09 04:14:03;;;;;;;10.68;2.15;;;;;;;11.93;56.84;101186.81;4984776;28;20040;-69
2021/08/09 04:16:29;;;;;;;8.68;2.65;;;;;;;11.96;56.97;101186.72;4994007;28;20487;-69
2021/08/09 04:18:54;;;;;;;8.75;1.92;;;;;;;11.75;57.23;101191.00;4996358;28;20037;-69
2021/08/09 04:21:20;;;;;;;11.38;2.15;;;;;;;11.50;58.06;101197.19;4997489;28;20037;-69
2021/08/09 04:23:48;;;;;;;13.82;2.80;;;;;;;11.50;58.53;101196.34;4993748;28;20072;-69
2021/08/09 04:26:15;;;;;;;8.25;2.35;;;;;;;11.94;57.07;101199.03;4986626;28;20018;-68
2021/08/09 04:28:42;;;;;;;11.60;2.55;;;;;;;11.98;56.93;101198.84;4989240;28;20535;-69
2021/08/09 04:31:10;;;;;;;14.15;2.05;;;;;;;11.88;57.33;101192.25;5014445;23;20044;-66
2021/08/09 04:33:43;;;;;;;13.27;3.20;;;;;;;12.17;56.32;101191.03;5018812;28;20301;-66
2021/08/09 04:36:09;;;;;;;8.20;1.52;;;;;;;12.21;56.49;101200.50;5016662;28;20502;-67
2021/08/09 04:38:35;;;;;;;6.47;1.80;;;;;;;12.57;55.46;101194.59;5007184;28;20087;-68
2021/08/09 04:41:06;;;;;;;6.80;1.63;;;;;;;12.62;55.27;101197.03;4991919;28;20060;-67
2021/08/09 04:43:36;;;;;;;6.47;1.95;;;;;;;12.77;54.84;101199.00;5007472;28;20089;-67
2021/08/09 04:46:04;;;;;;;8.68;1.90;;;;;;;11.99;57.19;101210.16;5007206;28;20030;-67
2021/08/09 04:48:32;;;;;;;4.82;1.80;;;;;;;12.02;57.77;101207.41;5006003;28;20539;-66
2021/08/09 04:50:59;;;;;;;12.98;3.05;;;;;;;12.34;56.80;101210.47;5007337;28;20034;-66
2021/08/09 04:53:25;;;;;;;5.63;1.95;;;;;;;12.91;55.05;101208.88;5005251;28;20470;-66
2021/08/09 04:55:51;;;;;;;5.35;2.25;;;;;;;12.99;55.02;101217.28;5010481;28;20120;-67
2021/08/09 04:58:17;;;;;;;8.25;2.28;;;;;;;13.04;55.03;101209.19;5005177;28;20549;-66
2021/08/09 05:00:42;;;;;;;6.60;2.30;;;;;;;12.95;55.01;101213.06;5009974;28;20026;-68
2021/08/09 05:03:08;;;;;;;9.55;2.17;;;;;;;13.53;53.67;101206.94;5002037;28;20108;-66
2021/08/09 05:05:34;;;;;;;8.15;2.55;;;;;;;13.23;54.35;101214.47;5005110;28;20064;-66
2021/08/09 05:08:00;;;;;;;9.43;2.88;;;;;;;13.35;53.77;101220.94;4990193;28;20456;-66
2021/08/09 05:10:28;;;;;;;8.10;1.92;;;;;;;13.53;53.67;101223.53;5003558;28;20033;-67
2021/08/09 05:12:54;;;;;;;13.02;2.35;;;;;;;13.38;53.92;101226.88;5005742;28;20037;-68
2021/08/09 05:15:22;;;;;;;7.40;1.95;;;;;;;13.64;53.49;101223.06;5003898;28;20148;-67
2021/08/09 05:17:48;;;;;;;9.63;2.33;;;;;;;13.22;54.12;101233.75;5006623;28;20037;-68
2021/08/09 05:20:13;;;;;;;7.53;2.45;;;;;;;13.99;52.16;101230.19;5001747;28;20030;-66
2021/08/09 05:22:39;;;;;;;17.02;3.42;;;;;;;14.72;50.99;101226.50;5006789;28;20410;-67
2021/08/09 05:25:08;;;;;;;11.77;2.42;;;;;;;14.08;52.05;101225.31;4990137;28;20068;-68
2021/08/09 05:27:34;;;;;;;4.63;2.17;;;;;;;14.22;52.54;101234.31;4993096;28;20124;-68
2021/08/09 05:30:02;;;;;;;6.40;1.92;;;;;;;13.86;52.85;101230.78;5004322;28;20490;-67
2021/08/09 05:32:31;;;;;;;11.00;3.35;;;;;;;14.29;51.90;101233.91;5006405;28;20039;-67
2021/08/09 05:35:00;;;;;;;17.30;2.33;;;;;;;15.12;49.38;101239.34;5001799;28;20037;-66
2021/08/09 05:37:31;;;;;;;5.65;2.22;;;;;;;15.33;48.21;101243.47;5007633;28;20457;-66
2021/08/09 05:39:58;;;;;;;10.23;2.33;;;;;;;14.05;51.65;101243.00;5006109;28;20065;-66
2021/08/09 05:42:24;;;;;;;10.55;2.05;;;;;;;14.02;51.68;101244.00;5006424;28;20022;-67
2021/08/09 05:44:50;;;;;;;11.23;2.25;;;;;;;13.93;52.33;101245.31;5006333;28;20176;-67
2021/08/09 05:47:17;;;;;;;10.35;2.25;;;;;;;13.78;52.85;101247.81;5020339;28;20056;-67
2021/08/09 05:49:43;;;;;;;10.00;2.97;;;;;;;13.68;52.47;101239.53;5002355;28;20045;-67
2021/08/09 05:52:20;;;;;;;10.70;1.85;;;;;;;13.99;52.49;101240.69;5006539;28;20069;-65
2021/08/09 05:54:48;;;;;;;8.73;1.80;;;;;;;14.63;50.63;101242.75;5003078;28;20033;-68
2021/08/09 05:57:15;;;;;;;11.65;2.28;;;;;;;14.10;51.25;101244.50;5007692;28;20372;-67
2021/08/09 05:59:40;;;;;;;13.32;2.55;;;;;;;14.56;50.92;101244.84;5008195;28;20036;-66
2021/08/09 06:02:09;;;;;;;11.85;2.58;;;;;;;15.07;49.21;101244.84;5002121;28;20030;-67
2021/08/09 06:04:35;;;;;;;10.48;2.65;;;;;;;15.34;49.32;101249.59;5018500;28;20116;-69
2021/08/09 06:07:00;;;;;;;10.32;2.80;;;;;;;16.01;47.04;101250.28;5002568;28;20486;-68
2021/08/09 06:09:26;;;;;;;15.60;2.50;;;;;;;15.61;47.41;101254.28;4989058;28;20038;-68
2021/08/09 06:11:55;;;;;;;10.60;2.10;;;;;;;16.50;45.73;101250.06;5005006;28;20395;-69
2021/08/09 06:14:24;;;;;;;7.45;2.35;;;;;;;15.59;46.98;101252.59;5004307;28;20048;-66
2021/08/09 06:16:51;;;;;;;11.88;1.73;;;;;;;15.62;48.08;101263.88;5006320;28;20052;-66
2021/08/09 06:19:18;;;;;;;9.20;1.92;;;;;;;16.47;45.62;101267.88;4986806;28;20402;-67
2021/08/09 06:21:44;;;;;;;6.78;1.75;;;;;;;15.80;47.12;101273.41;5008826;28;20025;-70
2021/08/09 06:24:11;;;;;;;12.52;2.63;;;;;;;15.90;47.11;101263.19;5005053;28;20053;-66
2021/08/09 06:26:40;;;;;;;8.68;2.38;;;;;;;16.27;45.98;101277.81;5007629;28;20033;-66
2021/08/09 06:29:06;;;;;;;9.15;2.42;;;;;;;15.15;48.77;101274.25;5009637;28;20402;-67
2021/08/09 06:31:32;;;;;;;8.40;2.65;;;;;;;15.94;46.60;101278.75;5004420;28;20073;-66
2021/08/09 06:33:58;;;;;;;6.10;1.88;;;;;;;15.97;46.43;101270.69;4991419;28;20503;-68
2021/08/09 06:36:30;;;;;;;;;;;;;;;16.27;46.80;101267.25;4993836;28;20482;-68
2021/08/09 06:38:56;;;;;;;9.60;2.50;;;;;;;15.97;47.44;101268.06;5008293;28;19924;-66
2021/08/09 06:41:24;;;;;;;9.40;2.08;;;;;;;16.61;44.87;101270.56;5007308;28;20042;-66
2021/08/09 06:44:02;;;;;;;9.35;2.08;;;;;;;16.76;44.73;101264.41;5005327;28;20038;-67
2021/08/09 06:46:28;;;;;;;13.10;2.20;;;;;;;17.46;43.44;101263.63;4985588;28;20072;-67
2021/08/09 06:48:56;;;;;;;14.35;1.48;;;;;;;17.77;42.16;101265.19;5003519;28;20034;-66
2021/08/09 06:51:23;;;;;;;12.32;1.35;;;;;;;18.47;40.60;101272.97;4992578;28;20513;-67
2021/08/09 06:53:49;;;;;;;6.05;1.70;;;;;;;17.42;43.29;101272.69;5007411;28;20030;-68
2021/08/09 06:56:15;;;;;;;8.95;1.75;;;;;;;18.14;41.73;101272.50;5003106;28;20061;-67
2021/08/09 06:58:44;;;;;;;10.82;2.17;;;;;;;16.97;44.61;101277.22;5005910;28;20038;-67
2021/08/09 07:01:10;;;;;;;7.07;1.52;;;;;;;17.22;43.20;101280.06;5004644;28;20026;-67
2021/08/09 07:03:35;;;;;;;12.90;2.38;;;;;;;16.27;45.44;101276.97;5003907;28;20491;-67
2021/08/09 07:06:01;;;;;;;4.95;1.45;;;;;;;17.21;43.62;101286.28;5002577;28;20080;-66
2021/08/09 07:08:27;;;;;;;9.45;1.50;;;;;;;16.37;46.14;101292.13;5003130;28;20023;-66
2021/08/09 07:10:52;;;;;;;7.65;1.42;;;;;;;17.86;42.48;101283.09;5003616;28;20521;-67
2021/08/09 07:13:19;;;;;;;15.07;1.50;;;;;;;17.62;43.67;101282.88;5005779;28;20025;-67
2021/08/09 07:15:45;;;;;;;10.18;1.70;;;;;;;18.69;41.17;101282.94;4990327;28;20041;-68
2021/08/09 07:18:13;;;;;;;9.10;2.45;;;;;;;19.07;39.99;101291.88;5005420;28;20423;-67
2021/08/09 07:20:41;;;;;;;9.75;2.25;;;;;;;19.88;37.62;101309.13;5003366;28;20034;-67
2021/08/09 07:23:07;;;;;;;11.27;3.03;;;;;;;18.17;41.42;101306.72;4990410;28;20410;-66
2021/08/09 07:25:33;;;;;;;10.10;2.30;;;;;;;18.42;41.84;101317.41;5025124;28;20033;-66
2021/08/09 07:28:00;;;;;;;9.10;2.50;;;;;;;17.77;42.03;101315.41;5012725;28;20237;-67
2021/08/09 07:30:34;;;;;;;10.13;2.05;;;;;;;17.24;43.93;101312.50;5007357;28;20072;-69
2021/08/09 07:33:03;;;;;;;10.32;2.47;;;;;;;16.67;45.29;101328.25;4990251;28;20550;-69
2021/08/09 07:35:29;;;;;;;14.27;2.85;;;;;;;16.21;45.86;101320.34;5006911;28;20072;-66
2021/08/09 07:37:55;;;;;;;13.50;2.50;;;;;;;16.46;45.18;101321.56;5007304;28;20037;-69
2021/08/09 07:40:24;;;;;;;9.90;2.03;;;;;;;16.61;45.41;101318.88;5005808;28;20026;-67
2021/08/09 07:42:51;;;;;;;10.48;1.80;;;;;;;15.78;46.86;101313.03;5023394;28;20037;-67
2021/08/09 07:45:17;;;;;;;13.85;2.90;;;;;;;16.74;45.15;101308.47;5009533;28;20539;-67
2021/08/09 07:47:45;;;;;;;11.80;1.70;;;;;;;17.83;43.33;101316.84;5006690;28;20441;-67
2021/08/09 07:50:11;;;;;;;10.88;3.60;;;;;;;17.92;42.29;101312.75;5003645;28;20037;-66
2021/08/09 07:52:39;;;;;;;7.15;1.67;;;;;;;20.00;39.22;101312.69;5008744;28;20025;-67
2021/08/09 07:55:09;;;;;;;12.20;2.42;;;;;;;21.22;35.92;101307.91;5010546;28;20053;-67
2021/08/09 07:57:35;;;;;;;13.88;2.83;;;;;;;22.17;34.68;101310.06;5007569;28;20100;-68
2021/08/09 08:00:00;;;;;;;7.03;1.67;;;;;;;22.17;33.37;101294.09;5006929;28;20033;-66
2021/08/09 08:02:27;;;;;;;9.73;2.38;;;;;;;20.51;36.27;101308.00;5007546;28;20278;-66
2021/08/09 08:04:53;;;;;;;11.65;3.28;;;;;;;19.47;38.92;101307.63;5004686;28;20034;-67
2021/08/09 08:07:19;;;;;;;7.28;2.03;;;;;;;19.03;40.00;101306.28;5006247;28;20037;-70
2021/08/09 08:09:46;;;;;;;8.63;2.10;;;;;;;17.83;41.96;101304.47;5007680;28;20453;-68
2021/08/09 08:12:11;;;;;;;9.25;2.00;;;;;;;17.80;43.18;101303.78;5007243;28;20096;-67
2021/08/09 08:14:41;;;;;;;11.43;2.50;;;;;;;16.96;44.66;101317.78;5007072;28;20060;-70
2021/08/09 08:17:08;;;;;;;9.65;3.33;;;;;;;17.72;43.02;101306.94;5009286;28;20064;-69
2021/08/09 08:19:33;;;;;;;5.20;2.10;;;;;;;17.81;42.86;101310.81;5011901;28;20319;-68
2021/08/09 08:21:59;;;;;;;9.45;2.45;;;;;;;17.98;42.49;101318.50;5021586;28;20479;-67
2021/08/09 08:24:27;;;;;;;6.07;1.88;;;;;;;17.20;44.34;101312.78;5005687;28;20037;-67
2021/08/09 08:26:54;;;;;;;12.40;2.10;;;;;;;17.77;42.63;101320.72;5006642;28;20557;-69
2021/08/09 08:29:19;;;;;;;9.10;2.20;;;;;;;17.68;42.15;101321.28;5009064;28;20233;-66
2021/08/09 08:31:45;;;;;;;9.60;3.63;;;;;;;18.08;42.72;101329.31;5010194;28;20033;-68
2021/08/09 08:34:11;;;;;;;7.38;2.10;;;;;;;20.18;38.42;101332.56;5006620;28;20038;-67
2021/08/09 08:36:37;;;;;;;12.50;1.83;;;;;;;21.52;35.36;101325.06;5008256;28;20486;-68
2021/08/09 08:39:03;;;;;;;5.80;1.55;;;;;;;21.81;34.83;101330.72;5008672;28;20057;-68
2021/08/09 08:41:34;;;;;;;5.20;1.63;;;;;;;22.48;33.37;101335.00;4997512;28;20156;-67
2021/08/09 08:44:00;;;;;;;10.35;1.40;;;;;;;22.30;33.68;101331.22;5011955;28;20498;-67
2021/08/09 08:46:26;;;;;;;6.78;2.15;;;;;;;23.51;31.99;101344.88;5008219;28;20094;-69
2021/08/09 08:48:57;;;;;;;5.32;1.60;;;;;;;22.35;34.01;101344.97;5008696;28;20033;-69
2021/08/09 08:51:24;;;;;;;3.85;1.17;;;;;;;22.26;33.57;101341.25;5011467;28;20184;-69
2021/08/09 08:53:52;;;;;;;14.73;1.75;;;;;;;22.79;33.90;101340.44;5005373;28;20037;-70
2021/08/09 08:56:18;;;;;;;5.32;2.45;;;;;;;22.20;34.79;101348.91;5006845;28;20040;-67
2021/08/09 08:58:43;;;;;;;12.82;2.25;;;;;;;21.71;35.26;101346.59;5009705;28;20077;-66
2021/08/09 09:01:09;;;;;;;7.72;2.00;;;;;;;22.14;34.93;101344.94;5004773;28;20125;-68
2021/08/09 09:03:41;;;;;;;5.78;1.98;;;;;;;21.32;35.12;101342.56;5006995;28;20487;-67
2021/08/09 09:06:09;;;;;;;7.55;2.00;;;;;;;22.35;34.26;101344.97;5005998;28;20021;-68
2021/08/09 09:08:39;;;;;;;12.95;2.33;;;;;;;22.90;32.69;101345.69;5008142;28;20034;-67
2021/08/09 09:11:24;;;;;;;10.70;1.92;;;;;;;21.35;34.85;101347.63;5008607;28;20060;-68
2021/08/09 09:13:57;;;;;;;7.38;2.50;;;;;;;21.82;34.64;101347.50;5006024;28;20075;-68
2021/08/09 09:16:23;;;;;;;10.10;2.17;;;;;;;21.35;35.26;101356.47;5006943;28;20037;-70
2021/08/09 09:18:53;;;;;;;9.88;2.40;;;;;;;19.58;38.34;101355.44;5004096;28;20076;-70
2021/08/09 09:21:30;;;;;;;8.90;2.05;;;;;;;20.66;36.59;101353.81;5006187;28;20041;-65
2021/08/09 09:24:06;;;;;;;11.63;2.67;;;;;;;20.04;37.44;101346.84;5008967;28;20234;-69
2021/08/09 09:26:33;;;;;;;15.07;3.13;;;;;;;21.18;37.48;101348.09;5009262;28;20538;-68
2021/08/09 09:29:17;;;;;;;9.32;3.05;;;;;;;22.14;35.39;101348.44;5007507;28;20053;-68
2021/08/09 09:31:48;;;;;;;9.73;1.70;;;;;;;22.43;33.87;101346.97;5005909;28;20033;-68
2021/08/09 09:34:18;;;;;;;12.88;2.70;;;;;;;20.47;37.27;101359.63;5004207;28;20100;-67
2021/08/09 09:36:51;;;;;;;17.00;2.15;;;;;;;19.53;38.73;101367.31;5006659;28;20101;-67
2021/08/09 09:39:37;;;;;;;;;;;;;;;20.80;37.49;101371.34;5008996;28;20058;-66
2021/08/09 09:42:11;;;;;;;6.70;1.40;;;;;;;21.26;36.65;101365.16;5006055;28;19917;-66
2021/08/09 09:44:39;;;;;;;8.30;1.92;;;;;;;21.04;36.60;101375.75;5008846;28;20030;-68
2021/08/09 09:47:21;;;;;;;10.55;2.55;;;;;;;21.29;36.31;101370.25;5006844;28;20029;-67
2021/08/09 09:49:51;;;;;;;6.70;2.05;;;;;;;20.74;36.85;101371.78;5006643;28;20033;-70
2021/08/09 09:52:33;;;;;;;15.57;2.38;;;;;;;20.41;38.65;101376.00;5006685;28;20064;-69
2021/08/09 09:55:09;;;;;;;7.05;2.95;;;;;;;21.43;35.72;101373.66;5005531;28;20038;-69
2021/08/09 09:57:36;;;;;;;7.20;1.83;;;;;;;20.29;38.02;101374.28;5005709;28;20038;-67
2021/08/09 10:00:07;;;;;;;8.73;2.05;;;;;;;20.80;37.61;101376.66;5005940;28;20822;-68
2021/08/09 10:02:46;;;;;;;4.57;1.90;;;;;;;21.79;35.14;101379.69;5008190;28;20048;-67
2021/08/09 10:05:13;;;;;;;13.90;2.03;;;;;;;20.11;36.90;101379.94;5005699;28;20039;-67
2021/08/09 10:07:40;;;;;;;15.05;2.17;;;;;;;19.12;38.91;101379.81;5006490;28;20045;-66
2021/08/09 10:10:08;;;;;;;6.15;1.50;;;;;;;19.07;39.69;101387.25;5002341;28;20042;-67
2021/08/09 10:12:35;;;;;;;11.75;2.05;;;;;;;19.32;39.40;101389.03;5005240;28;20084;-66
2021/08/09 10:15:01;;;;;;;13.23;1.77;;;;;;;19.39;39.36;101389.47;5007946;28;20032;-68
2021/08/09 10:17:28;;;;;;;8.13;2.05;;;;;;;18.91;40.34;101390.09;5008272;28;20466;-66
2021/08/09 10:19:58;;;;;;;6.10;2.17;;;;;;;19.74;39.04;101394.16;5006597;28;20246;-67
2021/08/09 10:22:24;;;;;;;11.80;2.03;;;;;;;20.40;37.90;101389.41;5008326;28;20029;-66
2021/08/09 10:24:55;;;;;;;6.68;1.95;;;;;;;20.41;37.53;101391.09;5007922;28;20037;-65
2021/08/09 10:27:45;;;;;;;5.23;1.43;;;;;;;20.29;37.39;101400.81;5009894;28;20041;-67
2021/08/09 10:30:24;;;;;;;7.82;2.03;;;;;;;18.61;39.72;101396.44;5005535;28;20276;-67
2021/08/09 10:32:52;;;;;;;11.45;1.88;;;;;;;19.19;38.20;101396.16;5006801;28;20068;-67
2021/08/09 10:35:47;;;;;;;9.52;1.73;;;;;;;18.63;39.41;101396.31;5002556;28;20459;-65
2021/08/09 10:38:22;;;;;;;9.27;1.45;;;;;;;19.93;37.32;101397.19;4975845;28;20072;-66
2021/08/09 10:41:00;;;;;;;5.80;1.38;;;;;;;20.96;35.97;101397.63;5005286;28;20030;-67
2021/08/09 10:43:26;;;;;;;6.20;1.80;;;;;;;18.99;39.38;101402.78;5007806;28;20034;-69
2021/08/09 10:45:51;;;;;;;9.13;2.10;;;;;;;19.76;37.84;101400.19;5007128;28;20415;-69
2021/08/09 10:48:42;;;;;;;11.25;2.22;;;;;;;20.58;37.67;101400.47;5005931;28;20042;-65
2021/08/09 10:51:07;;;;;;;6.60;1.73;;;;;;;20.30;36.49;101405.16;5020768;28;20036;-67
2021/08/09 10:53:33;;;;;;;9.10;1.70;;;;;;;21.13;35.79;101399.84;5005783;28;20037;-66
2021/08/09 10:55:58;;;;;;;11.77;1.48;;;;;;;21.30;35.70;101397.69;5012021;28;20046;-67
2021/08/09 10:58:42;;;;;;;4.20;1.20;;;;;;;20.19;36.46;101402.41;4995917;28;20056;-67
2021/08/09 11:01:18;;;;;;;8.52;2.13;;;;;;;20.78;36.15;101399.81;5006953;28;20048;-67
2021/08/09 11:04:13;;;;;;;8.20;2.15;;;;;;;21.34;34.93;101407.94;5010430;28;20042;-66
2021/08/09 11:06:39;;;;;;;9.05;1.45;;;;;;;21.20;35.32;101409.97;4999859;28;20045;-67
2021/08/09 11:09:33;;;;;;;6.15;1.70;;;;;;;21.86;35.16;101397.69;5008029;28;20443;-67
2021/08/09 11:12:22;;;;;;;8.93;2.20;;;;;;;21.97;34.71;101404.81;5010644;28;20478;-70
2021/08/09 11:15:06;;;;;;;9.45;1.17;;;;;;;20.53;36.68;101408.78;4995778;28;20503;-68
2021/08/09 11:17:48;;;;;;;9.13;1.67;;;;;;;21.68;34.74;101401.84;5014637;28;20033;-67
2021/08/09 11:20:13;;;;;;;;;;;;;;;22.56;32.25;101404.47;5011449;28;20479;-66
2021/08/09 11:22:41;;;;;;;6.03;1.55;;;;;;;22.42;32.68;101410.06;5007452;28;19967;-68
2021/08/09 11:25:23;;;;;;;2.55;1.17;;;;;;;22.57;32.10;101399.97;5005660;28;20034;-69
2021/08/09 11:27:59;;;;;;;3.17;1.17;;;;;;;22.63;31.98;101406.59;5008867;28;20037;-66
2021/08/09 11:30:36;;;;;;;8.50;1.38;;;;;;;23.36;32.21;101410.22;5011377;28;20029;-66
2021/08/09 11:33:01;;;;;;;4.68;1.08;;;;;;;23.42;31.65;101399.88;5006432;28;20100;-69
2021/08/09 11:35:27;;;;;;;7.90;0.90;;;;;;;23.71;29.12;101391.16;5014173;28;20478;-68